Rainbow Wing — 3FIQ7 — position and weather

sailwx.info

Track history (hours):
 
Tides and Currents Weather Stations Pressure Air Temp Water Temp Dewpoint Dewpoint Depression Visibility Wind Speed Wind Dir Waves Ship Positions

Rainbow Wing

Last reported at 2018-Jun-22 22:49 UTC. Time now 2018-Jun-25 05:41 UTC.
Position N 01°25' E 104°30'.

Length 190 m; beam 32.3 m.

Type: Cargo ship. MMSI: 374081000.

Date/timePositionNaut miles runAvg speedWind from/ knotsBaromVisibWave heightAir tempDewpointWater temp
2018-Jun-22 22:49N 01°25' E 104°30'512.0
2018-Jun-22 22:23N 01°22' E 104°26'512.1
2018-Jun-22 21:57N 01°19' E 104°22'510.9
2018-Jun-22 21:29N 01°17' E 104°17'611.9
2018-Jun-22 20:59N 01°16' E 104°11'611.5
2018-Jun-22 20:29N 01°15' E 104°05'4 9.0
2018-Jun-22 19:59N 01°17' E 104°01'1 1.2
2018-Jun-22 19:27N 01°18' E 104°01'0 0.1
2018-Jun-22 18:43N 01°18' E 104°01'0 0.0
2018-Jun-22 18:13N 01°18' E 104°01'0 0.0
2018-Jun-22 17:51N 01°18' E 104°01'0 0.0
2018-Jun-22 16:58N 01°18' E 104°01'0 0.0
2018-Jun-22 16:30N 01°18' E 104°01'0 0.0
2018-Jun-22 15:48N 01°18' E 104°01'0 0.0
2018-Jun-22 15:04N 01°18' E 104°01'0 0.0
2018-Jun-22 14:58N 01°18' E 104°01'0 0.0
2018-Jun-22 14:18N 01°18' E 104°01'0 0.2
2018-Jun-22 13:55N 01°18' E 104°01'0 0.0
2018-Jun-22 13:28N 01°18' E 104°01'0 0.1
2018-Jun-22 12:55N 01°18' E 104°01'0 0.1
2018-Jun-22 12:27N 01°18' E 104°01'0 0.0
2018-Jun-22 11:54N 01°18' E 104°01'0 0.0
2018-Jun-22 11:30N 01°18' E 104°01'0 0.1
2018-Jun-22 10:58N 01°18' E 104°01'0 0.1
2018-Jun-22 10:25N 01°18' E 104°01'0 0.0
2018-Jun-22 09:52N 01°18' E 104°01'0 0.0
2018-Jun-22 09:30N 01°18' E 104°01'0 0.0
2018-Jun-22 08:55N 01°18' E 104°01'0 0.0
2018-Jun-22 08:22N 01°18' E 104°01'0 0.0
2018-Jun-22 07:54N 01°18' E 104°01'0 0.0
2018-Jun-22 07:30N 01°18' E 104°01'0 0.0
2018-Jun-22 06:48N 01°18' E 104°01'0 0.2
2018-Jun-22 06:27N 01°18' E 104°01'0 0.2
2018-Jun-22 05:55N 01°18' E 104°01'0 0.0
2018-Jun-22 05:21N 01°18' E 104°01'0 0.2
2018-Jun-22 04:55N 01°18' E 104°01'0 0.0
2018-Jun-22 04:28N 01°18' E 104°01'0 0.0
2018-Jun-22 03:55N 01°18' E 104°01'0 0.0
2018-Jun-22 03:28N 01°18' E 104°01'0 0.0
2018-Jun-22 02:52N 01°18' E 104°01'0 0.0
2018-Jun-22 02:27N 01°18' E 104°01'0 0.0
2018-Jun-22 01:57N 01°18' E 104°01'0 0.0
2018-Jun-22 01:07N 01°18' E 104°01'0 0.0
2018-Jun-22 00:58N 01°18' E 104°01'0 0.0
2018-Jun-22 00:24N 01°18' E 104°01'0 0.0
2018-Jun-21 23:55N 01°18' E 104°01'0 0.0
2018-Jun-21 23:25N 01°18' E 104°01'0 0.0
2018-Jun-21 22:55N 01°18' E 104°01'0 0.0
2018-Jun-21 22:25N 01°18' E 104°01'0 0.1
2018-Jun-21 21:58N 01°18' E 104°01'0 0.1
2018-Jun-21 21:16N 01°18' E 104°01'0 0.0
2018-Jun-21 20:58N 01°18' E 104°01'0 0.1
2018-Jun-21 20:28N 01°18' E 104°01'0 0.0
2018-Jun-21 19:55N 01°18' E 104°01'0 0.1
2018-Jun-21 19:30N 01°18' E 104°01'0 0.1
2018-Jun-21 18:58N 01°18' E 104°01'0 0.1
2018-Jun-21 18:27N 01°18' E 104°01'0 0.1
2018-Jun-21 17:55N 01°18' E 104°01'0 0.1
2018-Jun-21 17:22N 01°18' E 104°01'0 0.1
2018-Jun-21 16:55N 01°18' E 104°01'0 0.0
2018-Jun-21 16:30N 01°18' E 104°01'0 0.1
2018-Jun-21 15:58N 01°18' E 104°01'0 0.1
2018-Jun-21 15:27N 01°18' E 104°01'0 0.0
2018-Jun-21 14:54N 01°18' E 104°01'0 0.7
2018-Jun-21 14:31N 01°18' E 104°00'3 5.7
2018-Jun-21 13:57N 01°17' E 104°04'3 6.2
2018-Jun-21 13:30N 01°18' E 104°06'3 5.0
2018-Jun-21 12:59N 01°15' E 104°05'2 4.5
2018-Jun-21 12:30N 01°15' E 104°03'2 4.8
2018-Jun-21 11:59N 01°15' E 104°00'3 5.5
2018-Jun-21 11:30N 01°14' E 103°58'3 5.7
2018-Jun-21 11:00N 01°13' E 103°55'3 5.6
2018-Jun-21 10:30N 01°11' E 103°53'2 4.8
2018-Jun-21 10:00N 01°11' E 103°50'3 5.8
2018-Jun-21 09:30N 01°09' E 103°48'2 5.0
2018-Jun-21 09:00N 01°08' E 103°46'3 5.6
2018-Jun-21 08:30N 01°06' E 103°44'510.1
2018-Jun-21 08:00N 01°03' E 103°40'510.5
2018-Jun-21 07:30N 01°05' E 103°35'510.5
2018-Jun-21 06:59N 01°08' E 103°30'511.3
2018-Jun-21 06:30N 01°11' E 103°26'510.6
2018-Jun-21 05:59N 01°14' E 103°21'611.5
2018-Jun-21 05:27N 01°18' E 103°17'511.1
2018-Jun-21 04:58N 01°21' E 103°13'511.1
2018-Jun-21 04:30N 01°25' E 103°08'  
Track history (hours):
 
Tides and Currents Weather Stations Pressure Air Temp Water Temp Dewpoint Dewpoint Depression Visibility Wind Speed Wind Dir Waves Ship Positions

Rainbow Wing

Last reported at 2018-Jun-22 22:49 UTC. Time now 2018-Jun-25 05:41 UTC.
Position N 01°25' E 104°30'.

Length 190 m; beam 32.3 m.

Type: Cargo ship. MMSI: 374081000.

Date/timePositionNaut miles runAvg speedWind from/ knotsBaromVisibWave heightAir tempDewpointWater temp
2018-Jun-22 22:49N 01°25' E 104°30'512.0
2018-Jun-22 22:23N 01°22' E 104°26'512.1
2018-Jun-22 21:57N 01°19' E 104°22'510.9
2018-Jun-22 21:29N 01°17' E 104°17'611.9
2018-Jun-22 20:59N 01°16' E 104°11'611.5
2018-Jun-22 20:29N 01°15' E 104°05'4 9.0
2018-Jun-22 19:59N 01°17' E 104°01'1 1.2
2018-Jun-22 19:27N 01°18' E 104°01'0 0.1
2018-Jun-22 18:43N 01°18' E 104°01'0 0.0
2018-Jun-22 18:13N 01°18' E 104°01'0 0.0
2018-Jun-22 17:51N 01°18' E 104°01'0 0.0
2018-Jun-22 16:58N 01°18' E 104°01'0 0.0
2018-Jun-22 16:30N 01°18' E 104°01'0 0.0
2018-Jun-22 15:48N 01°18' E 104°01'0 0.0
2018-Jun-22 15:04N 01°18' E 104°01'0 0.0
2018-Jun-22 14:58N 01°18' E 104°01'0 0.0
2018-Jun-22 14:18N 01°18' E 104°01'0 0.2
2018-Jun-22 13:55N 01°18' E 104°01'0 0.0
2018-Jun-22 13:28N 01°18' E 104°01'0 0.1
2018-Jun-22 12:55N 01°18' E 104°01'0 0.1
2018-Jun-22 12:27N 01°18' E 104°01'0 0.0
2018-Jun-22 11:54N 01°18' E 104°01'0 0.0
2018-Jun-22 11:30N 01°18' E 104°01'0 0.1
2018-Jun-22 10:58N 01°18' E 104°01'0 0.1
2018-Jun-22 10:25N 01°18' E 104°01'0 0.0
2018-Jun-22 09:52N 01°18' E 104°01'0 0.0
2018-Jun-22 09:30N 01°18' E 104°01'0 0.0
2018-Jun-22 08:55N 01°18' E 104°01'0 0.0
2018-Jun-22 08:22N 01°18' E 104°01'0 0.0
2018-Jun-22 07:54N 01°18' E 104°01'0 0.0
2018-Jun-22 07:30N 01°18' E 104°01'0 0.0
2018-Jun-22 06:48N 01°18' E 104°01'0 0.2
2018-Jun-22 06:27N 01°18' E 104°01'0 0.2
2018-Jun-22 05:55N 01°18' E 104°01'0 0.0
2018-Jun-22 05:21N 01°18' E 104°01'0 0.2
2018-Jun-22 04:55N 01°18' E 104°01'0 0.0
2018-Jun-22 04:28N 01°18' E 104°01'0 0.0
2018-Jun-22 03:55N 01°18' E 104°01'0 0.0
2018-Jun-22 03:28N 01°18' E 104°01'0 0.0
2018-Jun-22 02:52N 01°18' E 104°01'0 0.0
2018-Jun-22 02:27N 01°18' E 104°01'0 0.0
2018-Jun-22 01:57N 01°18' E 104°01'0 0.0
2018-Jun-22 01:07N 01°18' E 104°01'0 0.0
2018-Jun-22 00:58N 01°18' E 104°01'0 0.0
2018-Jun-22 00:24N 01°18' E 104°01'0 0.0
2018-Jun-21 23:55N 01°18' E 104°01'0 0.0
2018-Jun-21 23:25N 01°18' E 104°01'0 0.0
2018-Jun-21 22:55N 01°18' E 104°01'0 0.0
2018-Jun-21 22:25N 01°18' E 104°01'0 0.1
2018-Jun-21 21:58N 01°18' E 104°01'0 0.1
2018-Jun-21 21:16N 01°18' E 104°01'0 0.0
2018-Jun-21 20:58N 01°18' E 104°01'0 0.1
2018-Jun-21 20:28N 01°18' E 104°01'0 0.0
2018-Jun-21 19:55N 01°18' E 104°01'0 0.1
2018-Jun-21 19:30N 01°18' E 104°01'0 0.1
2018-Jun-21 18:58N 01°18' E 104°01'0 0.1
2018-Jun-21 18:27N 01°18' E 104°01'0 0.1
2018-Jun-21 17:55N 01°18' E 104°01'0 0.1
2018-Jun-21 17:22N 01°18' E 104°01'0 0.1
2018-Jun-21 16:55N 01°18' E 104°01'0 0.0
2018-Jun-21 16:30N 01°18' E 104°01'0 0.1
2018-Jun-21 15:58N 01°18' E 104°01'0 0.1
2018-Jun-21 15:27N 01°18' E 104°01'0 0.0
2018-Jun-21 14:54N 01°18' E 104°01'0 0.7
2018-Jun-21 14:31N 01°18' E 104°00'3 5.7
2018-Jun-21 13:57N 01°17' E 104°04'3 6.2
2018-Jun-21 13:30N 01°18' E 104°06'3 5.0
2018-Jun-21 12:59N 01°15' E 104°05'2 4.5
2018-Jun-21 12:30N 01°15' E 104°03'2 4.8
2018-Jun-21 11:59N 01°15' E 104°00'3 5.5
2018-Jun-21 11:30N 01°14' E 103°58'3 5.7
2018-Jun-21 11:00N 01°13' E 103°55'3 5.6
2018-Jun-21 10:30N 01°11' E 103°53'2 4.8
2018-Jun-21 10:00N 01°11' E 103°50'3 5.8
2018-Jun-21 09:30N 01°09' E 103°48'2 5.0
2018-Jun-21 09:00N 01°08' E 103°46'3 5.6
2018-Jun-21 08:30N 01°06' E 103°44'510.1
2018-Jun-21 08:00N 01°03' E 103°40'510.5
2018-Jun-21 07:30N 01°05' E 103°35'510.5
2018-Jun-21 06:59N 01°08' E 103°30'511.3
2018-Jun-21 06:30N 01°11' E 103°26'510.6
2018-Jun-21 05:59N 01°14' E 103°21'611.5
2018-Jun-21 05:27N 01°18' E 103°17'511.1
2018-Jun-21 04:58N 01°21' E 103°13'511.1
2018-Jun-21 04:30N 01°25' E 103°08'  

Dump ship's entire track history